Mallow, Ireland
Current Conditions -  °F | °C
As of 12:30 AM on Wednesday 26 Nov 2014 (Local Time) from EICK Reporting Station
Scattered Clouds Scattered Clouds  
Wind Chill: 41°   Ceiling: Unl
Heat Index: 41°   Visibility: 6mi
Dew Point: 39°   Wind: 3mph
Humidity: 93%   Direction: 80°E
Pressure: 30"   Gusts: NA
Location:  52.14°N, 8.66°W
Report Text: EICK 260030Z 08003KT 9999 SCT030 05/04 Q1016 BECMG 3000 BKN008
Loading
Personal Weather Stations






























Interactive Weather Map New forecast layout! Learn more

10-Day Weather Forecast

Advertisements
Track Severe Weather on mobile